createdAt,value
2022-12-31T00:01:09.075Z,93.50
2022-12-31T00:03:36.506Z,93.50
2022-12-31T00:06:32.226Z,93.60
2022-12-31T00:09:00.673Z,93.60
2022-12-31T00:11:31.528Z,93.60
2022-12-31T00:13:58.921Z,93.60
2022-12-31T00:16:30.745Z,93.60
2022-12-31T00:18:59.358Z,93.70
2022-12-31T00:21:28.555Z,93.70
2022-12-31T00:23:56.257Z,93.80
2022-12-31T00:26:25.891Z,93.80
2022-12-31T00:28:54.391Z,93.80
2022-12-31T00:31:23.951Z,93.90
2022-12-31T00:33:51.459Z,93.90
2022-12-31T00:36:24.430Z,94.00
2022-12-31T00:38:58.044Z,94.00
2022-12-31T00:41:25.650Z,94.00
2022-12-31T00:43:52.651Z,93.90
2022-12-31T00:46:20.139Z,93.80
2022-12-31T00:48:49.512Z,93.70
2022-12-31T00:51:18.599Z,93.70
2022-12-31T00:53:46.262Z,93.70
2022-12-31T00:56:16.271Z,93.80
2022-12-31T00:58:43.412Z,94.10
2022-12-31T01:01:21.268Z,93.80
2022-12-31T01:03:50.495Z,93.90
2022-12-31T01:06:18.174Z,93.90
2022-12-31T01:08:45.425Z,94.00
2022-12-31T01:11:19.004Z,93.90
2022-12-31T01:13:54.455Z,94.00
2022-12-31T01:16:25.770Z,94.00
2022-12-31T01:18:52.497Z,94.10
2022-12-31T01:21:20.852Z,94.10
2022-12-31T01:23:48.914Z,94.10
2022-12-31T01:26:19.305Z,94.10
2022-12-31T01:28:47.315Z,94.10
2022-12-31T01:31:20.248Z,94.10
2022-12-31T01:33:47.616Z,94.10
2022-12-31T01:36:23.383Z,94.20
2022-12-31T01:38:53.161Z,94.30
2022-12-31T01:41:22.883Z,94.20
2022-12-31T01:44:02.260Z,94.30
2022-12-31T01:46:45.711Z,94.20
2022-12-31T01:49:23.525Z,94.30
2022-12-31T01:51:55.497Z,94.20
2022-12-31T01:54:25.668Z,94.30
2022-12-31T01:56:54.889Z,94.30
2022-12-31T01:59:23.221Z,94.30
2022-12-31T02:01:53.632Z,94.40
2022-12-31T02:04:25.906Z,94.50
2022-12-31T02:06:58.306Z,94.50
2022-12-31T02:09:25.182Z,94.50
2022-12-31T02:11:52.064Z,94.50
2022-12-31T02:14:25.578Z,94.60
2022-12-31T02:17:22.915Z,94.60
2022-12-31T02:20:26.901Z,94.60
2022-12-31T02:23:31.643Z,94.50
2022-12-31T02:26:24.944Z,94.50
2022-12-31T02:29:15.755Z,94.50
2022-12-31T02:31:50.125Z,94.50
2022-12-31T02:34:30.639Z,94.60
2022-12-31T02:37:00.222Z,94.50
2022-12-31T02:39:28.627Z,94.70
2022-12-31T02:41:55.399Z,94.70
2022-12-31T02:44:31.580Z,94.70
2022-12-31T02:47:10.427Z,94.70
2022-12-31T02:49:52.257Z,94.60
2022-12-31T02:52:48.387Z,94.60
2022-12-31T02:55:33.655Z,94.70
2022-12-31T02:58:09.141Z,94.60
2022-12-31T03:01:01.615Z,94.70
2022-12-31T03:03:29.192Z,94.70
2022-12-31T03:05:59.623Z,94.80
2022-12-31T03:08:31.859Z,94.80
2022-12-31T03:10:58.572Z,94.80
2022-12-31T03:13:25.477Z,94.90
2022-12-31T03:15:52.329Z,94.90
2022-12-31T03:18:41.787Z,94.90
2022-12-31T03:21:32.010Z,94.90
2022-12-31T03:24:17.131Z,94.90
2022-12-31T03:26:45.063Z,95.00
2022-12-31T03:29:11.846Z,95.00
2022-12-31T03:31:38.593Z,95.00
2022-12-31T03:34:05.298Z,95.00
2022-12-31T03:36:32.100Z,95.00
2022-12-31T03:39:01.385Z,95.10
2022-12-31T03:41:28.206Z,95.10
2022-12-31T03:43:54.911Z,95.10
2022-12-31T03:46:21.651Z,95.10
2022-12-31T03:48:48.473Z,95.10
2022-12-31T03:51:16.709Z,95.10
2022-12-31T03:53:43.391Z,95.10
2022-12-31T03:56:10.219Z,95.10
2022-12-31T03:58:36.919Z,95.10
2022-12-31T04:01:03.733Z,95.20
2022-12-31T04:03:30.617Z,95.20
2022-12-31T04:05:57.450Z,95.20
2022-12-31T04:08:24.648Z,95.30
2022-12-31T04:10:54.307Z,95.30
2022-12-31T04:13:21.116Z,95.30
2022-12-31T04:15:50.898Z,95.30
2022-12-31T04:18:17.738Z,95.30
2022-12-31T04:20:44.490Z,95.30
2022-12-31T04:23:11.229Z,95.30
2022-12-31T04:25:37.931Z,95.20
2022-12-31T04:28:07.404Z,95.30
2022-12-31T04:30:34.150Z,95.30
2022-12-31T04:33:01.060Z,95.40
2022-12-31T04:35:27.984Z,95.40
2022-12-31T04:37:54.752Z,95.40
2022-12-31T04:40:21.547Z,95.40
2022-12-31T04:42:48.469Z,95.40
2022-12-31T04:45:15.308Z,95.40
2022-12-31T04:47:42.161Z,95.50
2022-12-31T04:50:09.137Z,95.50
2022-12-31T04:52:42.475Z,95.50
2022-12-31T04:55:09.981Z,95.50
2022-12-31T04:57:36.756Z,95.50
2022-12-31T05:00:03.978Z,95.60
2022-12-31T05:02:33.789Z,95.60
2022-12-31T05:05:00.578Z,95.60
2022-12-31T05:07:27.391Z,95.60
2022-12-31T05:10:00.304Z,95.70
2022-12-31T05:12:27.048Z,95.70
2022-12-31T05:14:56.604Z,95.70
2022-12-31T05:17:23.330Z,95.70
2022-12-31T05:19:50.102Z,95.80
2022-12-31T05:22:29.098Z,95.80
2022-12-31T05:24:56.920Z,95.80
2022-12-31T05:27:24.341Z,95.80
2022-12-31T05:29:51.195Z,95.80
2022-12-31T05:32:18.052Z,95.80
2022-12-31T05:34:47.965Z,95.90
2022-12-31T05:37:14.808Z,95.90
2022-12-31T05:39:44.512Z,95.90
2022-12-31T05:42:11.274Z,95.90
2022-12-31T05:44:38.110Z,96.00
2022-12-31T05:47:05.114Z,96.00
2022-12-31T05:49:31.812Z,96.00
2022-12-31T05:51:58.571Z,96.00
2022-12-31T05:54:25.353Z,96.10
2022-12-31T05:56:52.191Z,96.20
2022-12-31T05:59:18.965Z,96.20
2022-12-31T06:01:45.713Z,96.20
2022-12-31T06:04:12.404Z,96.20
2022-12-31T06:06:39.202Z,96.20
2022-12-31T06:09:06.003Z,96.20
2022-12-31T06:11:32.848Z,96.20
2022-12-31T06:13:59.894Z,96.30
2022-12-31T06:16:27.320Z,96.40
2022-12-31T06:18:54.364Z,96.40
2022-12-31T06:21:21.866Z,96.40
2022-12-31T06:23:49.222Z,96.50
2022-12-31T06:26:16.081Z,96.60
2022-12-31T06:28:42.830Z,96.60
2022-12-31T06:31:12.992Z,96.60
2022-12-31T06:33:39.889Z,96.70
2022-12-31T06:36:09.343Z,96.70
2022-12-31T06:38:40.689Z,96.80
2022-12-31T06:41:11.583Z,96.80
2022-12-31T06:43:40.140Z,96.80
2022-12-31T06:46:09.770Z,96.90
2022-12-31T06:48:37.109Z,96.90
2022-12-31T06:51:17.463Z,96.90
2022-12-31T06:53:48.833Z,97.00
2022-12-31T06:56:33.814Z,97.00
2022-12-31T06:59:02.643Z,97.10
2022-12-31T07:01:41.235Z,97.10
2022-12-31T07:04:35.322Z,97.00
2022-12-31T07:07:04.945Z,96.90
2022-12-31T07:09:48.131Z,97.00
2022-12-31T07:12:23.764Z,96.90
2022-12-31T07:15:02.138Z,96.90
2022-12-31T07:17:49.737Z,96.90
2022-12-31T07:20:18.327Z,96.80
2022-12-31T07:22:46.289Z,96.80
2022-12-31T07:25:18.185Z,96.80
2022-12-31T07:28:14.397Z,96.80
2022-12-31T07:31:00.669Z,96.60
2022-12-31T07:33:57.930Z,96.40
2022-12-31T07:36:56.168Z,96.30
2022-12-31T07:39:55.488Z,96.30
2022-12-31T07:42:32.724Z,96.40
2022-12-31T07:45:11.731Z,96.40
2022-12-31T07:47:39.281Z,96.50
2022-12-31T07:50:06.670Z,96.50
2022-12-31T07:52:33.647Z,96.60
2022-12-31T07:55:00.321Z,96.60
2022-12-31T07:57:35.769Z,96.60
2022-12-31T08:00:13.227Z,96.50
2022-12-31T08:02:42.679Z,96.50
2022-12-31T08:05:44.324Z,96.40
2022-12-31T08:08:46.759Z,96.20
2022-12-31T08:11:55.612Z,95.80
2022-12-31T08:14:22.771Z,95.20
2022-12-31T08:16:49.851Z,95.40
2022-12-31T08:19:32.120Z,95.50
2022-12-31T08:22:04.325Z,95.60
2022-12-31T08:24:52.555Z,96.00
2022-12-31T08:27:36.437Z,96.10
2022-12-31T08:30:14.797Z,96.40
2022-12-31T08:33:05.119Z,96.50
2022-12-31T08:36:03.627Z,96.60
2022-12-31T08:38:57.764Z,96.70
2022-12-31T08:41:45.846Z,96.80
2022-12-31T08:44:27.632Z,96.70
2022-12-31T08:47:02.819Z,96.60
2022-12-31T08:49:32.537Z,96.90
2022-12-31T08:52:00.330Z,97.10
2022-12-31T08:54:27.789Z,97.20
2022-12-31T08:57:04.742Z,97.10
2022-12-31T08:59:44.001Z,97.00
2022-12-31T09:02:44.632Z,96.80
2022-12-31T09:05:32.601Z,96.60
2022-12-31T09:08:26.641Z,96.40
2022-12-31T09:11:30.617Z,96.20
2022-12-31T09:14:24.881Z,96.10
2022-12-31T09:17:03.509Z,96.00
2022-12-31T09:19:30.612Z,95.80
2022-12-31T09:21:57.539Z,95.70
2022-12-31T09:24:24.864Z,95.60
2022-12-31T09:26:58.242Z,95.90
2022-12-31T09:29:54.400Z,95.50
2022-12-31T09:32:37.665Z,95.40
2022-12-31T09:35:26.905Z,95.60
2022-12-31T09:38:11.119Z,95.20
2022-12-31T09:40:56.823Z,95.00
2022-12-31T09:43:59.071Z,94.80
2022-12-31T09:46:52.504Z,94.70
2022-12-31T09:49:28.037Z,94.70
2022-12-31T09:52:18.337Z,94.80
2022-12-31T09:55:02.814Z,94.80
2022-12-31T09:57:36.040Z,95.00
2022-12-31T10:00:48.337Z,95.00
2022-12-31T10:03:45.864Z,95.00
2022-12-31T10:06:23.155Z,95.00
2022-12-31T10:09:19.792Z,95.10
2022-12-31T10:12:05.140Z,95.10
2022-12-31T10:14:59.440Z,95.10
2022-12-31T10:17:46.979Z,94.90
2022-12-31T10:20:32.357Z,94.90
2022-12-31T10:23:17.752Z,95.00
2022-12-31T10:25:59.936Z,95.00
2022-12-31T10:28:34.166Z,95.10
2022-12-31T10:31:30.387Z,95.10
2022-12-31T10:34:17.256Z,95.00
2022-12-31T10:37:02.869Z,95.00
2022-12-31T10:40:00.064Z,95.00
2022-12-31T10:42:50.876Z,95.00
2022-12-31T10:45:29.815Z,95.00
2022-12-31T10:48:30.496Z,95.00
2022-12-31T10:51:39.079Z,94.90
2022-12-31T10:54:30.618Z,94.90
2022-12-31T10:57:01.150Z,94.90
2022-12-31T10:59:52.298Z,94.80
2022-12-31T11:02:40.722Z,94.80
2022-12-31T11:05:31.849Z,94.60
2022-12-31T11:08:19.976Z,94.50
2022-12-31T11:11:37.648Z,94.40
2022-12-31T11:14:38.144Z,94.30
2022-12-31T11:17:17.479Z,94.10
2022-12-31T11:20:48.420Z,93.90
2022-12-31T11:24:05.555Z,93.80
2022-12-31T11:26:47.249Z,93.40
2022-12-31T11:29:53.694Z,93.40
2022-12-31T11:32:29.509Z,93.10
2022-12-31T11:35:41.204Z,93.20
2022-12-31T11:38:29.919Z,93.10
2022-12-31T11:41:19.383Z,92.80
2022-12-31T11:44:10.766Z,92.60
2022-12-31T11:47:00.235Z,92.60
2022-12-31T11:49:36.612Z,92.10
2022-12-31T11:52:42.156Z,92.00
2022-12-31T11:55:24.363Z,91.90
2022-12-31T11:57:54.852Z,92.10
2022-12-31T12:00:24.482Z,92.10
2022-12-31T12:03:00.942Z,92.10
2022-12-31T12:05:27.924Z,92.20
2022-12-31T12:07:55.001Z,92.30
2022-12-31T12:10:55.140Z,92.50
2022-12-31T12:13:23.489Z,92.50
2022-12-31T12:15:59.487Z,92.70
2022-12-31T12:18:32.130Z,92.80
2022-12-31T12:21:06.607Z,92.80
2022-12-31T12:23:33.642Z,92.90
2022-12-31T12:26:00.351Z,92.90
2022-12-31T12:28:30.512Z,92.90
2022-12-31T12:30:57.422Z,92.80
2022-12-31T12:33:25.581Z,92.90
2022-12-31T12:35:52.317Z,92.90
2022-12-31T12:38:23.693Z,92.90
2022-12-31T12:41:01.332Z,92.90
2022-12-31T12:43:37.018Z,92.90
2022-12-31T12:46:31.192Z,92.90
2022-12-31T12:48:58.696Z,92.90
2022-12-31T12:51:52.039Z,92.90
2022-12-31T12:54:41.472Z,92.90
2022-12-31T12:57:26.890Z,92.90
2022-12-31T13:00:29.646Z,92.80
2022-12-31T13:02:59.459Z,92.80
2022-12-31T13:05:44.700Z,92.80
2022-12-31T13:08:40.609Z,92.80
2022-12-31T13:11:07.412Z,92.70
2022-12-31T13:13:47.337Z,92.70
2022-12-31T13:16:16.850Z,92.60
2022-12-31T13:18:49.425Z,92.60
2022-12-31T13:21:37.140Z,92.60
2022-12-31T13:24:35.632Z,92.60
2022-12-31T13:27:35.947Z,92.50
2022-12-31T13:30:12.349Z,92.60
2022-12-31T13:32:44.680Z,92.60
2022-12-31T13:35:24.754Z,92.60
2022-12-31T13:38:04.817Z,92.40
2022-12-31T13:40:49.929Z,92.50
2022-12-31T13:43:38.880Z,92.50
2022-12-31T13:46:23.430Z,92.40
2022-12-31T13:48:57.013Z,92.40
2022-12-31T13:51:48.154Z,92.30
2022-12-31T13:54:17.638Z,92.20
2022-12-31T13:56:46.049Z,92.20
2022-12-31T13:59:37.768Z,92.10
2022-12-31T14:02:24.492Z,91.90
2022-12-31T14:05:01.826Z,91.60
2022-12-31T14:07:53.343Z,91.40
2022-12-31T14:10:32.233Z,91.30
2022-12-31T14:13:17.399Z,91.20
2022-12-31T14:16:01.497Z,91.00
2022-12-31T14:18:45.012Z,90.60
2022-12-31T14:21:23.300Z,90.70
2022-12-31T14:23:59.727Z,90.50
2022-12-31T14:26:51.634Z,90.10
2022-12-31T14:29:36.860Z,90.00
2022-12-31T14:32:09.355Z,89.50
2022-12-31T14:34:53.221Z,89.40
2022-12-31T14:37:49.232Z,89.20
2022-12-31T14:40:37.815Z,89.20
2022-12-31T14:43:19.268Z,88.80
2022-12-31T14:46:10.565Z,88.50
2022-12-31T14:49:06.527Z,88.10
2022-12-31T14:51:37.202Z,87.10
2022-12-31T14:54:04.538Z,87.40
2022-12-31T14:56:51.547Z,87.40
2022-12-31T14:59:34.424Z,87.20
2022-12-31T15:02:04.542Z,87.10
2022-12-31T15:04:44.575Z,86.70
2022-12-31T15:07:16.953Z,86.50
2022-12-31T15:10:02.112Z,86.50
2022-12-31T15:13:10.594Z,86.20
2022-12-31T15:16:14.824Z,85.60
2022-12-31T15:19:03.071Z,85.40
2022-12-31T15:21:41.496Z,84.00
2022-12-31T15:24:34.855Z,85.00
2022-12-31T15:27:03.917Z,84.80
2022-12-31T15:29:41.698Z,84.50
2022-12-31T15:32:20.796Z,84.40
2022-12-31T15:34:47.662Z,84.40
2022-12-31T15:37:35.506Z,84.20
2022-12-31T15:40:24.985Z,84.30
2022-12-31T15:43:22.836Z,83.90
2022-12-31T15:45:52.464Z,83.70
2022-12-31T15:48:27.355Z,83.40
2022-12-31T15:50:57.965Z,83.50
2022-12-31T15:53:39.671Z,83.00
2022-12-31T15:56:12.205Z,83.10
2022-12-31T15:58:42.334Z,82.90
2022-12-31T16:01:24.407Z,82.20
2022-12-31T16:04:01.902Z,82.40
2022-12-31T16:06:31.417Z,82.60
2022-12-31T16:08:58.708Z,82.50
2022-12-31T16:11:27.958Z,82.20
2022-12-31T16:13:57.104Z,81.80
2022-12-31T16:16:27.267Z,81.60
2022-12-31T16:18:55.051Z,81.50
2022-12-31T16:21:45.590Z,80.90
2022-12-31T16:24:32.882Z,81.20
2022-12-31T16:27:05.244Z,81.00
2022-12-31T16:29:35.156Z,81.00
2022-12-31T16:32:02.404Z,80.70
2022-12-31T16:34:35.421Z,80.60
2022-12-31T16:37:05.287Z,80.80
2022-12-31T16:39:36.103Z,80.50
2022-12-31T16:42:24.243Z,80.50
2022-12-31T16:44:53.250Z,80.60
2022-12-31T16:47:24.570Z,80.70
2022-12-31T16:50:17.780Z,80.50
2022-12-31T16:52:47.356Z,80.50
2022-12-31T16:55:23.648Z,80.40
2022-12-31T16:57:57.837Z,80.10
2022-12-31T17:00:28.753Z,80.20
2022-12-31T17:03:18.815Z,80.10
2022-12-31T17:06:06.918Z,79.80
2022-12-31T17:08:41.785Z,79.80
2022-12-31T17:11:34.764Z,79.90
2022-12-31T17:14:10.151Z,79.40
2022-12-31T17:16:42.695Z,79.50
2022-12-31T17:19:37.933Z,79.50
2022-12-31T17:22:08.204Z,79.50
2022-12-31T17:24:35.957Z,79.30
2022-12-31T17:27:06.054Z,79.00
2022-12-31T17:29:34.025Z,79.10
2022-12-31T17:32:06.741Z,78.80
2022-12-31T17:34:49.318Z,78.40
2022-12-31T17:37:28.831Z,78.40
2022-12-31T17:40:17.383Z,76.80
2022-12-31T17:42:48.534Z,78.00
2022-12-31T17:45:21.194Z,78.10
2022-12-31T17:47:53.791Z,77.70
2022-12-31T17:50:25.994Z,77.50
2022-12-31T17:53:22.143Z,78.00
2022-12-31T17:55:54.151Z,77.50
2022-12-31T17:58:29.825Z,77.10
2022-12-31T18:00:58.231Z,76.30
2022-12-31T18:03:25.586Z,76.80
2022-12-31T18:05:52.548Z,76.50
2022-12-31T18:08:19.665Z,76.20
2022-12-31T18:10:46.514Z,75.90
2022-12-31T18:13:18.968Z,75.80
2022-12-31T18:15:46.096Z,75.60
2022-12-31T18:18:25.348Z,75.80
2022-12-31T18:21:18.839Z,75.50
2022-12-31T18:23:49.388Z,75.70
2022-12-31T18:26:19.249Z,75.30
2022-12-31T18:28:49.732Z,74.60
2022-12-31T18:31:28.769Z,74.90
2022-12-31T18:33:58.388Z,74.70
2022-12-31T18:36:28.741Z,74.60
2022-12-31T18:38:55.732Z,74.30
2022-12-31T18:41:27.810Z,74.20
2022-12-31T18:43:55.584Z,74.20
2022-12-31T18:46:24.643Z,74.20
2022-12-31T18:48:51.549Z,73.70
2022-12-31T18:51:31.054Z,73.70
2022-12-31T18:53:59.231Z,73.90
2022-12-31T18:56:26.137Z,73.80
2022-12-31T18:58:52.868Z,73.60
2022-12-31T19:01:39.625Z,73.50
2022-12-31T19:04:26.504Z,72.80
2022-12-31T19:06:54.132Z,73.20
2022-12-31T19:09:44.049Z,73.00
2022-12-31T19:12:12.796Z,72.40
2022-12-31T19:14:39.629Z,72.40
2022-12-31T19:19:32.134Z,72.60
2022-12-31T19:21:58.819Z,72.60
2022-12-31T19:24:27.036Z,72.20
2022-12-31T19:26:54.983Z,72.10
2022-12-31T19:29:27.318Z,71.60
2022-12-31T19:31:54.626Z,71.80
2022-12-31T19:34:21.551Z,71.80
2022-12-31T19:36:48.604Z,71.40
2022-12-31T19:39:18.610Z,71.80
2022-12-31T19:41:48.218Z,71.60
2022-12-31T19:44:19.000Z,70.90
2022-12-31T19:46:46.676Z,70.70
2022-12-31T19:49:14.564Z,71.80
2022-12-31T19:51:42.383Z,70.50
2022-12-31T19:54:12.711Z,70.60
2022-12-31T19:56:39.569Z,70.40
2022-12-31T19:59:07.735Z,70.20
2022-12-31T20:01:36.082Z,70.30
2022-12-31T20:04:03.706Z,70.00
2022-12-31T20:06:30.616Z,70.00
2022-12-31T20:08:57.415Z,70.00
2022-12-31T20:11:24.839Z,69.80
2022-12-31T20:13:53.620Z,69.60
2022-12-31T20:16:23.414Z,69.40
2022-12-31T20:18:51.238Z,69.20
2022-12-31T20:21:20.665Z,69.30
2022-12-31T20:23:49.328Z,68.90
2022-12-31T20:26:16.495Z,68.70
2022-12-31T20:28:43.437Z,68.50
2022-12-31T20:31:19.711Z,69.10
2022-12-31T20:33:46.675Z,68.80
2022-12-31T20:36:15.244Z,68.70
2022-12-31T20:38:42.114Z,68.90
2022-12-31T20:41:27.272Z,68.60
2022-12-31T20:43:54.625Z,67.80
2022-12-31T20:46:24.347Z,68.70
2022-12-31T20:48:57.810Z,68.30
2022-12-31T20:51:25.879Z,68.30
2022-12-31T20:53:55.905Z,68.20
2022-12-31T20:56:24.492Z,68.00
2022-12-31T20:58:51.322Z,68.10
2022-12-31T21:01:19.211Z,67.80
2022-12-31T21:04:04.725Z,67.80
2022-12-31T21:06:32.875Z,68.00
2022-12-31T21:09:01.470Z,67.90
2022-12-31T21:11:46.714Z,67.50
2022-12-31T21:14:14.025Z,67.30
2022-12-31T21:16:40.999Z,67.60
2022-12-31T21:19:07.882Z,67.50
2022-12-31T21:21:34.626Z,67.50
2022-12-31T21:24:01.487Z,67.80
2022-12-31T21:26:29.153Z,67.00
2022-12-31T21:28:56.405Z,67.30
2022-12-31T21:31:25.907Z,67.30
2022-12-31T21:33:52.993Z,67.00
2022-12-31T21:36:20.241Z,67.20
2022-12-31T21:38:48.371Z,66.80
2022-12-31T21:41:35.115Z,66.90
2022-12-31T21:44:02.691Z,66.80
2022-12-31T21:46:35.389Z,67.20
2022-12-31T21:49:02.348Z,66.80
2022-12-31T21:51:29.651Z,66.80
2022-12-31T21:53:57.933Z,66.70
2022-12-31T21:56:25.091Z,66.60
2022-12-31T21:59:15.754Z,66.70
2022-12-31T22:02:01.782Z,66.10
2022-12-31T22:05:00.833Z,66.50
2022-12-31T22:07:15.809Z,66.20
2022-12-31T22:09:42.602Z,66.50
2022-12-31T22:12:12.453Z,66.20
2022-12-31T22:14:39.218Z,66.00
2022-12-31T22:17:25.933Z,65.80
2022-12-31T22:20:25.388Z,65.30
2022-12-31T22:22:42.096Z,65.70
2022-12-31T22:25:09.364Z,65.70
2022-12-31T22:27:36.067Z,65.80
2022-12-31T22:30:02.881Z,65.60
2022-12-31T22:32:32.237Z,65.50
2022-12-31T22:35:01.938Z,65.40
2022-12-31T22:37:55.545Z,65.50
2022-12-31T22:40:16.336Z,65.20
2022-12-31T22:42:43.432Z,64.90
2022-12-31T22:45:10.809Z,65.40
2022-12-31T22:47:37.619Z,65.00
2022-12-31T22:50:04.951Z,65.60
2022-12-31T22:52:32.515Z,64.90
2022-12-31T22:54:59.228Z,65.40
2022-12-31T22:57:26.001Z,64.50
2022-12-31T22:59:52.759Z,64.80
2022-12-31T23:02:19.629Z,64.50
2022-12-31T23:04:46.501Z,64.90
2022-12-31T23:07:13.234Z,65.20
2022-12-31T23:09:58.355Z,64.50
2022-12-31T23:12:28.163Z,64.50
2022-12-31T23:15:13.606Z,64.80
2022-12-31T23:17:58.796Z,64.80
2022-12-31T23:20:44.680Z,64.60
2022-12-31T23:23:16.338Z,64.90
2022-12-31T23:25:48.891Z,64.90
2022-12-31T23:28:18.195Z,64.90
2022-12-31T23:30:45.026Z,64.80
2022-12-31T23:33:20.935Z,64.40
2022-12-31T23:35:48.075Z,64.30
2022-12-31T23:38:16.814Z,64.70
2022-12-31T23:40:44.164Z,64.50
2022-12-31T23:43:19.613Z,64.60
2022-12-31T23:45:46.481Z,64.70
2022-12-31T23:48:13.331Z,64.70
2022-12-31T23:50:41.052Z,64.30
2022-12-31T23:53:08.003Z,64.40
2022-12-31T23:55:34.690Z,64.50
2022-12-31T23:58:01.502Z,64.30
